createdAt,value
2019-04-20T00:04:30.994Z,11.63
2019-04-20T00:09:38.387Z,11.95
2019-04-20T00:14:42.534Z,11.48
2019-04-20T00:19:53.548Z,11.25
2019-04-20T00:25:20.117Z,11.73
2019-04-20T00:30:41.635Z,11.60
2019-04-20T00:35:29.316Z,12.20
2019-04-20T00:40:36.093Z,13.20
2019-04-20T00:45:46.742Z,13.78
2019-04-20T00:51:11.465Z,13.60
2019-04-20T00:55:57.125Z,13.83
2019-04-20T01:01:20.496Z,14.65
2019-04-20T01:07:01.562Z,13.55
2019-04-20T01:11:54.576Z,13.98
2019-04-20T01:17:10.931Z,13.58
2019-04-20T01:22:14.754Z,14.35
2019-04-20T01:27:28.390Z,13.50
2019-04-20T01:32:33.449Z,13.75
2019-04-20T01:37:38.422Z,13.68
2019-04-20T01:42:36.130Z,14.93
2019-04-20T01:47:47.276Z,14.63
2019-04-20T01:52:58.018Z,14.38
2019-04-20T02:03:38.381Z,14.85
2019-04-20T02:08:40.048Z,13.80
2019-04-20T02:13:52.910Z,13.40
2019-04-20T02:19:12.029Z,13.72
2019-04-20T02:24:04.046Z,13.53
2019-04-20T02:29:30.531Z,14.93
2019-04-20T02:34:59.830Z,14.80
2019-04-20T02:45:18.661Z,14.68
2019-04-20T02:50:22.469Z,14.93
2019-04-20T02:55:33.925Z,14.68
2019-04-20T03:00:29.667Z,14.95
2019-04-20T03:05:25.629Z,13.93
2019-04-20T03:10:51.016Z,14.68
2019-04-20T03:15:42.336Z,13.72
2019-04-20T03:20:56.448Z,14.43
2019-04-20T03:26:11.005Z,14.05
2019-04-20T03:36:49.535Z,14.28
2019-04-20T03:41:22.452Z,14.38
2019-04-20T03:46:30.192Z,15.03
2019-04-20T03:51:51.748Z,15.63
2019-04-20T03:57:06.620Z,15.43
2019-04-20T04:02:42.759Z,15.88
2019-04-20T04:07:25.213Z,15.28
2019-04-20T04:13:07.146Z,14.75
2019-04-20T04:18:21.968Z,15.90
2019-04-20T04:23:40.418Z,16.12
2019-04-20T04:28:46.331Z,17.20
2019-04-20T04:39:22.553Z,15.63
2019-04-20T04:44:08.658Z,15.55
2019-04-20T04:49:06.794Z,14.50
2019-04-20T04:54:16.400Z,15.18
2019-04-20T04:59:12.787Z,17.30
2019-04-20T05:04:40.480Z,15.00
2019-04-20T05:09:29.608Z,14.95
2019-04-20T05:14:49.706Z,14.03
2019-04-20T05:20:06.660Z,14.13
2019-04-20T05:25:32.755Z,15.72
2019-04-20T05:30:20.185Z,14.58
2019-04-20T05:35:47.722Z,14.73
2019-04-20T05:40:50.293Z,15.03
2019-04-20T05:45:52.603Z,15.03
2019-04-20T05:51:02.002Z,14.25
2019-04-20T05:56:17.400Z,14.93
2019-04-20T06:01:29.473Z,14.87
2019-04-20T06:06:33.170Z,15.55
2019-04-20T06:11:44.900Z,16.10
2019-04-20T06:17:04.763Z,15.78
2019-04-20T06:22:21.440Z,15.60
2019-04-20T06:27:25.498Z,15.30
2019-04-20T06:33:19.172Z,15.83
2019-04-20T06:38:37.552Z,15.35
2019-04-20T06:43:25.401Z,16.35
2019-04-20T06:53:43.437Z,16.30
2019-04-20T06:58:49.932Z,16.82
2019-04-20T07:04:10.783Z,17.57
2019-04-20T07:09:16.985Z,17.80
2019-04-20T07:14:00.958Z,16.85
2019-04-20T07:19:35.234Z,16.85
2019-04-20T07:24:42.136Z,16.77
2019-04-20T07:29:47.487Z,16.93
2019-04-20T07:34:56.354Z,17.05
2019-04-20T07:40:07.516Z,17.48
2019-04-20T07:45:19.930Z,17.77
2019-04-20T07:50:13.629Z,16.75
2019-04-20T08:00:48.586Z,17.23
2019-04-20T08:06:03.710Z,17.48
2019-04-20T08:11:23.163Z,17.00
2019-04-20T08:16:43.897Z,16.80
2019-04-20T08:21:42.280Z,16.45
2019-04-20T08:26:32.039Z,17.12
2019-04-20T08:32:11.639Z,16.82
2019-04-20T08:37:17.600Z,16.02
2019-04-20T08:43:47.385Z,16.35
2019-04-20T08:53:08.866Z,18.83
2019-04-20T08:57:42.881Z,14.40
2019-04-20T09:02:55.584Z,13.58
2019-04-20T09:08:06.824Z,12.90
2019-04-20T09:14:44.764Z,13.68
2019-04-20T09:19:55.819Z,14.47
2019-04-20T09:25:27.903Z,14.33
2019-04-20T09:30:17.390Z,14.07
2019-04-20T09:35:25.135Z,15.18
2019-04-20T09:40:35.011Z,14.60
2019-04-20T09:45:36.882Z,14.58
2019-04-20T09:50:55.579Z,15.88
2019-04-20T09:56:00.555Z,16.40
2019-04-20T10:01:03.354Z,16.50
2019-04-20T10:05:51.656Z,17.05
2019-04-20T10:10:56.111Z,17.50
2019-04-20T10:15:59.889Z,18.57
2019-04-20T10:21:03.639Z,18.02
2019-04-20T10:26:08.910Z,18.55
2019-04-20T10:31:12.879Z,17.50
2019-04-20T10:36:39.614Z,18.32
2019-04-20T10:41:50.596Z,17.17
2019-04-20T10:46:49.224Z,17.42
2019-04-20T10:51:53.613Z,16.95
2019-04-20T10:56:57.463Z,16.65
2019-04-20T11:02:01.527Z,16.85
2019-04-20T11:07:05.718Z,16.50
2019-04-20T11:12:10.437Z,17.00
2019-04-20T11:17:14.356Z,16.25
2019-04-20T11:22:18.097Z,15.45
2019-04-20T11:27:22.556Z,16.05
2019-04-20T11:32:28.368Z,17.05
2019-04-20T11:37:33.263Z,17.37
2019-04-20T11:42:37.436Z,17.82
2019-04-20T11:47:41.313Z,17.45
2019-04-20T11:52:48.171Z,16.65
2019-04-20T11:57:51.489Z,16.65
2019-04-20T12:03:23.730Z,16.93
2019-04-20T12:08:20.828Z,15.53
2019-04-20T12:13:24.847Z,14.65
2019-04-20T12:18:29.543Z,14.10
2019-04-20T12:23:34.008Z,14.18
2019-04-20T12:28:38.117Z,14.60
2019-04-20T12:33:44.644Z,14.85
2019-04-20T12:38:50.896Z,13.38
2019-04-20T12:43:56.039Z,13.85
2019-04-20T12:49:00.279Z,12.78
2019-04-20T12:54:04.695Z,12.88
2019-04-20T12:59:09.622Z,12.37
2019-04-20T13:04:14.434Z,12.65
2019-04-20T13:09:18.756Z,11.60
2019-04-20T13:14:36.520Z,12.25
2019-04-20T13:19:41.548Z,11.10
2019-04-20T13:24:45.329Z,11.80
2019-04-20T13:29:50.846Z,11.90
2019-04-20T13:34:56.185Z,12.20
2019-04-20T13:40:00.957Z,11.80
2019-04-20T13:45:08.453Z,12.45
2019-04-20T13:50:14.465Z,13.32
2019-04-20T13:55:21.933Z,11.85
2019-04-20T14:00:54.061Z,12.07
2019-04-20T14:05:58.413Z,12.15
2019-04-20T14:11:03.176Z,11.60
2019-04-20T14:16:07.418Z,12.70
2019-04-20T14:21:12.206Z,11.93
2019-04-20T14:26:16.724Z,12.93
2019-04-20T14:31:21.670Z,11.93
2019-04-20T14:36:26.555Z,10.23
2019-04-20T14:41:30.732Z,10.90
2019-04-20T14:46:35.883Z,11.43
2019-04-20T14:51:39.708Z,10.68
2019-04-20T14:56:43.538Z,11.03
2019-04-20T15:01:54.792Z,12.28
2019-04-20T15:07:00.167Z,11.00
2019-04-20T15:12:04.539Z,10.60
2019-04-20T15:17:11.004Z,11.35
2019-04-20T15:22:49.812Z,10.23
2019-04-20T15:27:54.508Z,9.78
2019-04-20T15:32:59.096Z,10.53
2019-04-20T15:38:03.010Z,10.10
2019-04-20T15:43:13.906Z,10.43
2019-04-20T15:48:14.164Z,11.03
2019-04-20T15:53:19.715Z,10.32
2019-04-20T15:58:24.015Z,9.80
2019-04-20T16:03:37.567Z,11.80
2019-04-20T16:08:46.270Z,21.87
2019-04-20T16:13:53.710Z,11.90
2019-04-20T16:18:56.820Z,10.20
2019-04-20T16:24:08.903Z,10.05
2019-04-20T16:29:13.441Z,10.13
2019-04-20T16:34:17.376Z,8.83
2019-04-20T16:39:22.515Z,8.95
2019-04-20T16:44:27.313Z,8.75
2019-04-20T16:49:31.170Z,9.28
2019-04-20T16:54:35.652Z,9.98
2019-04-20T16:59:45.666Z,10.00
2019-04-20T17:04:47.130Z,9.68
2019-04-20T17:09:51.843Z,10.43
2019-04-20T17:14:55.955Z,10.38
2019-04-20T17:19:59.789Z,9.53
2019-04-20T17:25:03.956Z,10.90
2019-04-20T17:30:31.289Z,10.10
2019-04-20T17:35:47.307Z,11.55
2019-04-20T17:41:01.248Z,12.45
2019-04-20T17:45:57.639Z,13.18
2019-04-20T17:51:12.327Z,11.95
2019-04-20T17:56:01.884Z,12.37
2019-04-20T18:01:51.576Z,14.90
2019-04-20T18:06:53.813Z,15.75
2019-04-20T18:11:52.788Z,15.55
2019-04-20T18:17:15.030Z,14.33
2019-04-20T18:22:09.850Z,12.68
2019-04-20T18:27:38.932Z,9.10
2019-04-20T18:32:25.328Z,9.10
2019-04-20T18:37:30.825Z,9.23
2019-04-20T18:42:40.667Z,9.38
2019-04-20T18:48:04.438Z,10.35
2019-04-20T18:52:45.780Z,10.82
2019-04-20T18:57:50.831Z,9.85
2019-04-20T19:02:57.569Z,10.78
2019-04-20T19:08:05.287Z,11.70
2019-04-20T19:13:20.291Z,10.75
2019-04-20T19:18:54.112Z,10.58
2019-04-20T19:23:53.362Z,10.50
2019-04-20T19:28:54.491Z,17.10
2019-04-20T19:34:15.350Z,17.70
2019-04-20T19:39:19.882Z,14.87
2019-04-20T19:44:19.261Z,11.53
2019-04-20T19:49:25.278Z,10.50
2019-04-20T19:54:43.367Z,10.58
2019-04-20T19:59:34.774Z,10.78
2019-04-20T20:04:33.279Z,10.53
2019-04-20T20:09:39.511Z,17.37
2019-04-20T20:14:47.530Z,15.88
2019-04-20T20:20:16.406Z,12.63
2019-04-20T20:24:56.868Z,11.60
2019-04-20T20:30:11.977Z,13.00
2019-04-20T20:35:17.863Z,10.88
2019-04-20T20:40:18.811Z,10.93
2019-04-20T20:45:30.820Z,8.78
2019-04-20T20:50:43.178Z,8.55
2019-04-20T20:55:38.316Z,7.92
2019-04-20T21:00:51.616Z,7.50
2019-04-20T21:05:41.859Z,7.70
2019-04-20T21:10:46.376Z,8.63
2019-04-20T21:15:59.494Z,8.05
2019-04-20T21:21:11.450Z,8.55
2019-04-20T21:26:11.423Z,8.85
2019-04-20T21:31:21.686Z,8.70
2019-04-20T21:36:25.903Z,8.08
2019-04-20T21:41:26.071Z,9.10
2019-04-20T21:46:40.847Z,8.80
2019-04-20T21:51:45.678Z,9.70
2019-04-20T21:56:49.904Z,9.88
2019-04-20T22:01:58.418Z,9.75
2019-04-20T22:06:54.269Z,9.25
2019-04-20T22:12:00.144Z,9.85
2019-04-20T22:17:05.478Z,10.35
2019-04-20T22:22:18.541Z,9.68
2019-04-20T22:27:21.103Z,13.50
2019-04-20T22:32:22.135Z,12.23
2019-04-20T22:37:31.913Z,12.45
2019-04-20T22:42:40.143Z,12.10
2019-04-20T22:47:42.554Z,12.05
2019-04-20T22:52:55.313Z,12.10
2019-04-20T22:58:00.963Z,11.22
2019-04-20T23:02:58.808Z,12.05
2019-04-20T23:08:02.695Z,11.25
2019-04-20T23:13:07.374Z,11.35
2019-04-20T23:18:11.951Z,11.60
2019-04-20T23:23:19.779Z,12.15
2019-04-20T23:28:23.067Z,11.88
2019-04-20T23:33:27.634Z,12.28
2019-04-20T23:38:32.644Z,12.07
2019-04-20T23:43:43.380Z,12.90
2019-04-20T23:49:13.504Z,12.18
2019-04-20T23:54:18.662Z,13.20
2019-04-20T23:59:19.117Z,12.53
